createdAt,value
2019-02-14T00:05:03.735Z,5.2
2019-02-14T00:12:04.594Z,5.3
2019-02-14T00:17:52.336Z,5.1
2019-02-14T00:24:27.499Z,5
2019-02-14T00:30:14.295Z,5
2019-02-14T00:37:18.189Z,4.8
2019-02-14T00:43:05.064Z,4.3
2019-02-14T00:49:39.513Z,4.6
2019-02-14T00:55:27.247Z,4.4
2019-02-14T01:02:27.816Z,4.1
2019-02-14T01:08:15.455Z,4.3
2019-02-14T01:15:29.466Z,3.5
2019-02-14T01:21:17.144Z,4
2019-02-14T01:28:00.993Z,3.8
2019-02-14T01:33:47.918Z,3.3
2019-02-14T01:40:52.976Z,3.4
2019-02-14T01:46:42.564Z,3.3
2019-02-14T01:53:31.953Z,3.7
2019-02-14T01:59:19.580Z,3.2
2019-02-14T02:06:04.284Z,3.3
2019-02-14T02:11:51.824Z,3.3
2019-02-14T02:18:39.964Z,3.2
2019-02-14T02:24:28.572Z,2.9
2019-02-14T02:31:19.703Z,3.2
2019-02-14T02:37:06.926Z,2.8
2019-02-14T02:43:52.288Z,2.7
2019-02-14T02:49:40.521Z,2.6
2019-02-14T02:56:25.175Z,3
2019-02-14T03:02:12.545Z,2.6
2019-02-14T03:08:33.646Z,3
2019-02-14T03:14:20.541Z,2.8
2019-02-14T03:26:12.795Z,2.7
2019-02-14T03:33:52.730Z,2.5
2019-02-14T03:39:40.213Z,2.4
2019-02-14T03:46:37.751Z,2.4
2019-02-14T03:52:24.562Z,2.4
2019-02-14T03:59:15.877Z,2.6
2019-02-14T04:05:02.683Z,2.4
2019-02-14T04:12:06.986Z,2.5
2019-02-14T04:17:54.873Z,2.2
2019-02-14T04:24:39.344Z,2.5
2019-02-14T04:30:27.284Z,2.4
2019-02-14T04:36:53.656Z,2.1
2019-02-14T04:42:40.509Z,2.5
2019-02-14T04:49:31.081Z,2.1
2019-02-14T04:55:17.767Z,2.5
2019-02-14T05:07:34.722Z,2.2
2019-02-14T05:13:21.561Z,2.2
2019-02-14T05:19:08.469Z,1.8
2019-02-14T05:24:56.254Z,1.8
2019-02-14T05:32:02.509Z,2
2019-02-14T05:37:49.323Z,1.8
2019-02-14T05:43:36.875Z,2
2019-02-14T05:49:24.321Z,2
2019-02-14T05:55:12.551Z,1.6
2019-02-14T06:01:00.375Z,1.8
2019-02-14T06:06:47.867Z,1.9
2019-02-14T06:12:34.644Z,3.8
2019-02-14T06:18:21.825Z,3.6
2019-02-14T06:24:09.902Z,3.7
2019-02-14T06:29:57.581Z,4.9
2019-02-14T06:35:47.091Z,5.1
2019-02-14T06:41:33.850Z,5.3
2019-02-14T06:47:21.128Z,4.8
